KIWA Airport (Phoenix-Mesa Gateway) Information

FAA: IWA - ICAO: KIWA

KIWA Airport Location

State Arizona
County Maricopa
City Phoenix
KIWA Airport is 20 miles southeast of Phoenix, AZ.
Latitude 33-18-28.1660N
Longitude 111-39-19.6530W
Elevation 1,384ft

KIWA Airport METARs

METAR KIWA 020147Z 29008KT 10SM CLR 15/00 A3009
Altimeter 30.09"
Temperature 15.0°C (59.0°F)
Wind 290° at 8KT
Clouds Skies are clear.
Visibility 10.0mi
Time observed: 2023-02-02T01:47:00Z

KIWA Airport Details

Status Operational
Activation December 1993
Ownership Public
Usage Public
Chart PHOENIX
ATC on-site Yes
Beacon schedule sunset-sunrise
Beacon color clear green

KIWA Airport Contacts

Owner PHX MESA GATEWAY AIRPORT AUTHORITY
Owner address 5835 S. SOSSAMAN RD, MESA, AZ 85212-0919
Owner phone (480) 988-7570
Manager N/A
Manager address N/A, N/A
Manager phone N/A

KIWA Airport (Phoenix-Mesa Gateway) Radio Frequencies

KIWA (Airport) Radio Frequencies

UNICOM N/A
Common traffic advisory frequency (CTAF) 120.6